createdAt,value
2022-09-21T00:01:39.888Z,99755.31
2022-09-21T00:04:08.703Z,99745.91
2022-09-21T00:06:37.941Z,99746.69
2022-09-21T00:09:08.574Z,99749.44
2022-09-21T00:11:37.346Z,99750.25
2022-09-21T00:14:12.601Z,99740.66
2022-09-21T00:16:43.582Z,99754.38
2022-09-21T00:19:12.738Z,99745.63
2022-09-21T00:21:41.319Z,99749.19
2022-09-21T00:24:10.213Z,99751.75
2022-09-21T00:26:38.798Z,99748.31
2022-09-21T00:29:07.373Z,99754.28
2022-09-21T00:31:36.116Z,99753.44
2022-09-21T00:34:08.121Z,99753.41
2022-09-21T00:36:36.721Z,99758.53
2022-09-21T00:39:05.401Z,99760.28
2022-09-21T00:41:35.010Z,99752.44
2022-09-21T00:44:21.616Z,99754.50
2022-09-21T00:46:53.783Z,99752.34
2022-09-21T00:49:23.800Z,99759.34
2022-09-21T00:51:53.715Z,99760.22
2022-09-21T00:54:28.852Z,99755.09
2022-09-21T00:57:03.377Z,99750.63
2022-09-21T00:59:35.236Z,99751.56
2022-09-21T01:02:04.065Z,99753.31
2022-09-21T01:04:33.531Z,99754.94
2022-09-21T01:07:06.307Z,99751.50
2022-09-21T01:09:35.510Z,99746.13
2022-09-21T01:12:22.321Z,99755.16
2022-09-21T01:15:00.154Z,99755.81
2022-09-21T01:17:54.510Z,99752.28
2022-09-21T01:20:22.786Z,99749.78
2022-09-21T01:23:19.632Z,99748.38
2022-09-21T01:26:11.770Z,99748.38
2022-09-21T01:29:17.421Z,99745.81
2022-09-21T01:32:23.176Z,99753.56
2022-09-21T01:34:59.952Z,99741.09
2022-09-21T01:37:52.395Z,99753.41
2022-09-21T01:40:36.037Z,99753.16
2022-09-21T01:43:07.688Z,99745.97
2022-09-21T01:45:41.123Z,99750.34
2022-09-21T01:48:09.970Z,99757.97
2022-09-21T01:50:44.806Z,99751.22
2022-09-21T01:53:34.279Z,99759.84
2022-09-21T01:56:10.543Z,99747.53
2022-09-21T01:59:01.786Z,99749.66
2022-09-21T02:01:35.733Z,99765.63
2022-09-21T02:04:10.496Z,99754.53
2022-09-21T02:06:45.636Z,99758.75
2022-09-21T02:09:14.626Z,99756.97
2022-09-21T02:11:44.234Z,99764.50
2022-09-21T02:14:17.425Z,99765.38
2022-09-21T02:16:55.737Z,99768.94
2022-09-21T02:19:45.620Z,99769.94
2022-09-21T02:22:33.660Z,99777.63
2022-09-21T02:25:04.804Z,99769.72
2022-09-21T02:27:48.132Z,99777.06
2022-09-21T02:30:21.836Z,99779.50
2022-09-21T02:33:09.263Z,99777.75
2022-09-21T02:35:43.887Z,99781.19
2022-09-21T02:38:32.746Z,99785.69
2022-09-21T02:41:13.414Z,99776.94
2022-09-21T02:44:04.842Z,99778.34
2022-09-21T02:46:56.354Z,99773.09
2022-09-21T02:49:34.256Z,99778.34
2022-09-21T02:52:08.467Z,99776.59
2022-09-21T02:54:39.106Z,99775.03
2022-09-21T02:57:08.200Z,99770.03
2022-09-21T02:59:36.638Z,99760.69
2022-09-21T03:02:06.009Z,99769.44
2022-09-21T03:04:34.769Z,99769.59
2022-09-21T03:07:03.353Z,99764.66
2022-09-21T03:09:31.732Z,99768.22
2022-09-21T03:12:00.111Z,99763.25
2022-09-21T03:14:28.388Z,99762.41
2022-09-21T03:16:56.561Z,99770.41
2022-09-21T03:19:25.861Z,99766.19
2022-09-21T03:21:55.061Z,99771.44
2022-09-21T03:24:41.772Z,99770.69
2022-09-21T03:27:10.454Z,99774.13
2022-09-21T03:29:38.731Z,99762.97
2022-09-21T03:32:07.110Z,99763.91
2022-09-21T03:34:35.284Z,99773.63
2022-09-21T03:37:08.271Z,99766.06
2022-09-21T03:39:37.140Z,99762.72
2022-09-21T03:42:05.748Z,99762.84
2022-09-21T03:44:34.131Z,99761.25
2022-09-21T03:47:02.810Z,99752.66
2022-09-21T03:49:31.291Z,99755.56
2022-09-21T03:51:59.982Z,99754.00
2022-09-21T03:54:28.562Z,99762.75
2022-09-21T03:56:57.043Z,99757.75
2022-09-21T03:59:25.424Z,99757.09
2022-09-21T04:01:54.195Z,99756.31
2022-09-21T04:04:22.793Z,99763.19
2022-09-21T04:06:51.166Z,99765.06
2022-09-21T04:09:19.449Z,99763.41
2022-09-21T04:11:48.545Z,99764.34
2022-09-21T04:14:17.947Z,99767.97
2022-09-21T04:16:46.433Z,99754.31
2022-09-21T04:19:14.910Z,99761.38
2022-09-21T04:21:43.391Z,99753.03
2022-09-21T04:24:11.465Z,99751.41
2022-09-21T04:26:41.379Z,99754.38
2022-09-21T04:29:11.289Z,99753.66
2022-09-21T04:31:39.570Z,99759.00
2022-09-21T04:34:09.489Z,99757.50
2022-09-21T04:36:37.558Z,99754.19
2022-09-21T04:39:06.787Z,99750.97
2022-09-21T04:41:35.030Z,99758.94
2022-09-21T04:44:03.717Z,99756.63
2022-09-21T04:46:32.348Z,99757.69
2022-09-21T04:49:00.913Z,99766.69
2022-09-21T04:51:28.853Z,99762.75
2022-09-21T04:53:56.747Z,99770.72
2022-09-21T04:56:25.099Z,99765.88
2022-09-21T04:58:53.778Z,99763.47
2022-09-21T05:01:22.507Z,99770.59
2022-09-21T05:03:50.821Z,99776.84
2022-09-21T05:06:19.229Z,99782.22
2022-09-21T05:09:06.655Z,99771.41
2022-09-21T05:11:39.641Z,99787.88
2022-09-21T05:14:09.475Z,99769.16
2022-09-21T05:16:37.855Z,99771.97
2022-09-21T05:19:06.570Z,99770.50
2022-09-21T05:21:37.050Z,99776.78
2022-09-21T05:24:06.351Z,99778.78
2022-09-21T05:26:35.242Z,99779.97
2022-09-21T05:29:04.340Z,99768.00
2022-09-21T05:31:32.202Z,99778.72
2022-09-21T05:34:14.509Z,99767.75
2022-09-21T05:36:50.361Z,99768.16
2022-09-21T05:39:18.741Z,99764.09
2022-09-21T05:41:47.631Z,99762.69
2022-09-21T05:44:19.304Z,99759.50
2022-09-21T05:47:19.412Z,99758.31
2022-09-21T05:50:12.878Z,99766.09
2022-09-21T05:52:46.889Z,99761.91
2022-09-21T05:55:37.488Z,99761.28
2022-09-21T05:58:28.600Z,99755.25
2022-09-21T06:01:16.986Z,99761.41
2022-09-21T06:03:45.428Z,99764.06
2022-09-21T06:06:13.830Z,99764.13
2022-09-21T06:08:41.878Z,99759.09
2022-09-21T06:11:10.793Z,99760.00
2022-09-21T06:13:38.841Z,99750.66
2022-09-21T06:16:08.346Z,99754.25
2022-09-21T06:18:41.441Z,99751.19
2022-09-21T06:21:10.224Z,99755.91
2022-09-21T06:23:38.976Z,99754.19
2022-09-21T06:26:07.494Z,99758.72
2022-09-21T06:28:35.772Z,99761.44
2022-09-21T06:31:04.116Z,99761.59
2022-09-21T06:33:32.017Z,99762.06
2022-09-21T06:36:01.011Z,99755.91
2022-09-21T06:38:29.563Z,99763.53
2022-09-21T06:41:02.965Z,99765.72
2022-09-21T06:43:32.187Z,99753.03
2022-09-21T06:46:02.570Z,99748.00
2022-09-21T06:48:33.246Z,99753.34
2022-09-21T06:51:06.643Z,99761.25
2022-09-21T06:53:35.226Z,99745.66
2022-09-21T06:56:03.299Z,99757.00
2022-09-21T06:58:39.050Z,99755.22
2022-09-21T07:01:13.714Z,99759.50
2022-09-21T07:03:43.593Z,99767.31
2022-09-21T07:06:14.529Z,99763.81
2022-09-21T07:11:33.099Z,99757.84
2022-09-21T07:14:01.375Z,99760.44
2022-09-21T07:16:30.103Z,99757.00
2022-09-21T07:19:10.005Z,99761.31
2022-09-21T07:21:38.999Z,99759.56
2022-09-21T07:24:11.897Z,99756.09
2022-09-21T07:26:42.520Z,99751.78
2022-09-21T07:29:11.076Z,99756.09
2022-09-21T07:31:39.677Z,99745.50
2022-09-21T07:34:08.238Z,99753.97
2022-09-21T07:36:36.754Z,99754.88
2022-09-21T07:39:05.440Z,99761.16
2022-09-21T07:41:33.978Z,99750.84
2022-09-21T07:44:03.015Z,99747.41
2022-09-21T07:46:30.983Z,99745.66
2022-09-21T07:48:58.654Z,99763.81
2022-09-21T07:51:26.213Z,99758.50
2022-09-21T07:53:57.299Z,99758.41
2022-09-21T07:56:26.038Z,99753.09
2022-09-21T07:59:08.854Z,99760.91
2022-09-21T08:01:42.451Z,99760.84
2022-09-21T08:04:11.246Z,99757.31
2022-09-21T08:06:40.553Z,99756.34
2022-09-21T08:09:09.021Z,99753.53
2022-09-21T08:11:38.012Z,99762.88
2022-09-21T08:14:06.284Z,99758.34
2022-09-21T08:16:35.865Z,99764.94
2022-09-21T08:19:07.662Z,99761.84
2022-09-21T08:21:35.513Z,99755.59
2022-09-21T08:24:03.602Z,99757.19
2022-09-21T08:26:32.184Z,99752.84
2022-09-21T08:29:00.768Z,99757.13
2022-09-21T08:31:29.278Z,99742.50
2022-09-21T08:33:57.934Z,99746.13
2022-09-21T08:36:26.772Z,99750.63
2022-09-21T08:38:57.099Z,99746.38
2022-09-21T08:41:33.620Z,99752.63
2022-09-21T08:44:13.560Z,99756.31
2022-09-21T08:46:44.280Z,99745.09
2022-09-21T08:49:20.976Z,99732.31
2022-09-21T08:51:59.185Z,99739.31
2022-09-21T08:54:53.984Z,99735.97
2022-09-21T08:57:26.971Z,99716.75
2022-09-21T08:59:55.758Z,99728.03
2022-09-21T09:02:57.521Z,99732.44
2022-09-21T09:05:55.289Z,99735.09
2022-09-21T09:08:52.644Z,99736.91
2022-09-21T09:11:38.952Z,99722.44
2022-09-21T09:14:34.249Z,99718.53
2022-09-21T09:17:20.743Z,99719.63
2022-09-21T09:20:13.513Z,99712.69
2022-09-21T09:22:48.712Z,99712.66
2022-09-21T09:25:24.955Z,99708.31
2022-09-21T09:27:56.515Z,99708.22
2022-09-21T09:30:28.485Z,99700.38
2022-09-21T09:33:23.525Z,99709.13
2022-09-21T09:36:02.123Z,99699.53
2022-09-21T09:38:34.718Z,99713.47
2022-09-21T09:41:13.563Z,99705.75
2022-09-21T09:44:06.589Z,99714.41
2022-09-21T09:46:59.174Z,99712.66
2022-09-21T09:49:34.279Z,99702.25
2022-09-21T09:52:02.571Z,99702.22
2022-09-21T09:54:34.502Z,99704.81
2022-09-21T09:57:07.310Z,99704.84
2022-09-21T09:59:43.657Z,99712.72
2022-09-21T10:02:28.140Z,99709.19
2022-09-21T10:05:06.940Z,99704.84
2022-09-21T10:07:48.273Z,99701.41
2022-09-21T10:10:32.843Z,99698.78
2022-09-21T10:13:21.780Z,99706.59
2022-09-21T10:15:52.898Z,99691.56
2022-09-21T10:18:24.665Z,99707.06
2022-09-21T10:20:58.884Z,99689.00
2022-09-21T10:23:28.612Z,99703.94
2022-09-21T10:26:00.523Z,99699.66
2022-09-21T10:28:29.171Z,99688.38
2022-09-21T10:31:12.203Z,99699.63
2022-09-21T10:33:50.237Z,99687.44
2022-09-21T10:36:27.846Z,99690.00
2022-09-21T10:38:56.342Z,99690.00
2022-09-21T10:41:26.323Z,99691.75
2022-09-21T10:43:54.770Z,99686.47
2022-09-21T10:46:34.406Z,99698.59
2022-09-21T10:49:03.650Z,99678.56
2022-09-21T10:51:32.020Z,99685.53
2022-09-21T10:53:59.865Z,99687.25
2022-09-21T10:56:27.927Z,99679.41
2022-09-21T10:59:22.355Z,99683.69
2022-09-21T11:01:52.994Z,99687.84
2022-09-21T11:04:49.723Z,99688.69
2022-09-21T11:07:28.278Z,99686.78
2022-09-21T11:10:17.343Z,99692.78
2022-09-21T11:13:17.984Z,99686.72
2022-09-21T11:16:15.811Z,99684.91
2022-09-21T11:19:07.433Z,99675.41
2022-09-21T11:21:53.090Z,99691.84
2022-09-21T11:24:25.189Z,99676.22
2022-09-21T11:27:18.372Z,99692.78
2022-09-21T11:30:04.688Z,99682.38
2022-09-21T11:32:59.285Z,99691.97
2022-09-21T11:35:55.954Z,99684.09
2022-09-21T11:38:38.595Z,99682.28
2022-09-21T11:41:48.549Z,99679.69
2022-09-21T11:44:18.566Z,99684.91
2022-09-21T11:47:13.949Z,99677.84
2022-09-21T11:50:26.495Z,99684.56
2022-09-21T11:53:03.616Z,99676.78
2022-09-21T11:56:01.705Z,99671.56
2022-09-21T11:58:52.972Z,99671.66
2022-09-21T12:01:55.152Z,99673.41
2022-09-21T12:04:54.445Z,99661.31
2022-09-21T12:07:45.365Z,99659.56
2022-09-21T12:10:15.641Z,99666.41
2022-09-21T12:12:54.389Z,99664.59
2022-09-21T12:15:24.888Z,99670.59
2022-09-21T12:18:08.901Z,99670.41
2022-09-21T12:20:46.782Z,99663.47
2022-09-21T12:23:23.451Z,99667.63
2022-09-21T12:25:54.904Z,99662.41
2022-09-21T12:28:28.309Z,99654.59
2022-09-21T12:31:05.037Z,99658.06
2022-09-21T12:33:43.018Z,99656.38
2022-09-21T12:36:35.070Z,99655.47
2022-09-21T12:39:29.437Z,99664.06
2022-09-21T12:42:03.946Z,99654.44
2022-09-21T12:44:53.210Z,99656.13
2022-09-21T12:47:52.618Z,99650.09
2022-09-21T12:50:40.910Z,99667.28
2022-09-21T12:53:18.981Z,99663.81
2022-09-21T12:55:53.277Z,99670.63
2022-09-21T12:58:48.881Z,99660.28
2022-09-21T13:01:32.894Z,99668.88
2022-09-21T13:04:03.283Z,99667.06
2022-09-21T13:06:46.218Z,99660.09
2022-09-21T13:09:17.856Z,99660.09
2022-09-21T13:11:56.755Z,99653.16
2022-09-21T13:14:27.791Z,99655.75
2022-09-21T13:17:00.529Z,99647.06
2022-09-21T13:19:31.907Z,99666.97
2022-09-21T13:22:23.806Z,99662.75
2022-09-21T13:25:19.469Z,99644.53
2022-09-21T13:28:02.224Z,99662.66
2022-09-21T13:30:37.265Z,99647.84
2022-09-21T13:33:25.349Z,99653.06
2022-09-21T13:36:04.479Z,99650.34
2022-09-21T13:38:34.186Z,99646.88
2022-09-21T13:41:04.486Z,99638.91
2022-09-21T13:43:50.653Z,99647.63
2022-09-21T13:46:35.994Z,99650.28
2022-09-21T13:49:16.033Z,99638.91
2022-09-21T13:52:03.760Z,99648.50
2022-09-21T13:54:34.273Z,99645.16
2022-09-21T13:57:19.560Z,99647.53
2022-09-21T14:00:09.171Z,99648.31
2022-09-21T14:03:06.159Z,99644.00
2022-09-21T14:05:43.316Z,99647.31
2022-09-21T14:08:16.730Z,99642.16
2022-09-21T14:11:10.509Z,99644.81
2022-09-21T14:13:39.116Z,99634.38
2022-09-21T14:16:34.545Z,99638.81
2022-09-21T14:19:23.221Z,99632.56
2022-09-21T14:22:06.353Z,99640.50
2022-09-21T14:24:42.933Z,99645.63
2022-09-21T14:27:16.543Z,99634.28
2022-09-21T14:29:53.182Z,99643.69
2022-09-21T14:32:23.924Z,99647.94
2022-09-21T14:34:57.214Z,99647.91
2022-09-21T14:37:27.808Z,99641.81
2022-09-21T14:39:57.080Z,99635.72
2022-09-21T14:42:29.293Z,99640.06
2022-09-21T14:45:01.436Z,99640.06
2022-09-21T14:48:21.186Z,99640.19
2022-09-21T14:50:57.505Z,99646.06
2022-09-21T14:53:39.462Z,99643.41
2022-09-21T14:56:30.267Z,99647.69
2022-09-21T14:59:16.334Z,99651.03
2022-09-21T15:02:16.447Z,99646.72
2022-09-21T15:05:19.074Z,99650.16
2022-09-21T15:08:27.863Z,99634.59
2022-09-21T15:11:28.489Z,99651.13
2022-09-21T15:14:08.121Z,99655.31
2022-09-21T15:16:39.791Z,99650.91
2022-09-21T15:19:16.386Z,99659.63
2022-09-21T15:21:46.861Z,99659.44
2022-09-21T15:24:34.335Z,99670.59
2022-09-21T15:27:10.407Z,99660.28
2022-09-21T15:29:39.298Z,99663.81
2022-09-21T15:32:07.491Z,99658.59
2022-09-21T15:34:34.933Z,99659.47
2022-09-21T15:37:15.739Z,99662.88
2022-09-21T15:39:43.557Z,99649.88
2022-09-21T15:42:17.995Z,99659.44
2022-09-21T15:44:48.785Z,99666.25
2022-09-21T15:47:22.542Z,99660.94
2022-09-21T15:49:51.845Z,99667.97
2022-09-21T15:52:29.518Z,99672.16
2022-09-21T15:55:01.850Z,99671.34
2022-09-21T15:57:40.718Z,99684.38
2022-09-21T16:00:20.062Z,99694.72
2022-09-21T16:03:04.662Z,99692.09
2022-09-21T16:05:42.511Z,99691.13
2022-09-21T16:08:22.733Z,99696.44
2022-09-21T16:10:50.738Z,99701.47
2022-09-21T16:13:42.455Z,99688.47
2022-09-21T16:16:14.721Z,99706.69
2022-09-21T16:19:02.466Z,99705.91
2022-09-21T16:21:34.486Z,99706.84
2022-09-21T16:24:18.865Z,99710.16
2022-09-21T16:26:58.797Z,99698.75
2022-09-21T16:29:37.150Z,99706.38
2022-09-21T16:32:19.721Z,99717.72
2022-09-21T16:34:52.007Z,99699.53
2022-09-21T16:37:25.226Z,99708.13
2022-09-21T16:39:54.230Z,99712.41
2022-09-21T16:42:23.018Z,99708.06
2022-09-21T16:44:50.859Z,99711.50
2022-09-21T16:47:25.433Z,99705.53
2022-09-21T16:50:03.188Z,99710.69
2022-09-21T16:52:31.750Z,99699.44
2022-09-21T16:54:59.292Z,99707.22
2022-09-21T16:57:26.968Z,99701.19
2022-09-21T16:59:54.773Z,99708.00
2022-09-21T17:02:24.738Z,99716.59
2022-09-21T17:04:52.581Z,99714.88
2022-09-21T17:07:22.075Z,99723.44
2022-09-21T17:09:51.313Z,99717.47
2022-09-21T17:12:18.863Z,99719.06
2022-09-21T17:14:47.466Z,99733.78
2022-09-21T17:17:26.461Z,99746.50
2022-09-21T17:19:54.266Z,99761.72
2022-09-21T17:22:22.502Z,99750.16
2022-09-21T17:24:52.483Z,99770.72
2022-09-21T17:27:22.830Z,99764.97
2022-09-21T17:29:50.632Z,99762.56
2022-09-21T17:32:23.099Z,99778.59
2022-09-21T17:35:30.621Z,99787.28
2022-09-21T17:37:58.746Z,99788.13
2022-09-21T17:40:27.358Z,99783.34
2022-09-21T17:43:04.620Z,99778.69
2022-09-21T17:45:39.084Z,99770.44
2022-09-21T17:48:22.170Z,99752.78
2022-09-21T17:50:50.759Z,99752.28
2022-09-21T17:53:37.009Z,99756.38
2022-09-21T17:56:39.433Z,99746.91
2022-09-21T17:59:23.484Z,99724.22
2022-09-21T18:01:52.226Z,99747.28
2022-09-21T18:04:19.952Z,99759.06
2022-09-21T18:06:47.730Z,99769.19
2022-09-21T18:09:15.505Z,99777.72
2022-09-21T18:12:07.641Z,99780.47
2022-09-21T18:15:16.294Z,99796.91
2022-09-21T18:17:58.661Z,99794.06
2022-09-21T18:20:54.244Z,99784.75
2022-09-21T18:23:40.348Z,99785.44
2022-09-21T18:26:15.507Z,99784.38
2022-09-21T18:28:46.176Z,99780.00
2022-09-21T18:31:44.713Z,99782.75
2022-09-21T18:34:45.904Z,99771.69
2022-09-21T18:37:30.657Z,99762.84
2022-09-21T18:40:23.145Z,99769.84
2022-09-21T18:43:28.101Z,99768.38
2022-09-21T18:46:03.742Z,99768.88
2022-09-21T18:48:39.965Z,99773.06
2022-09-21T18:51:16.317Z,99777.31
2022-09-21T18:53:56.126Z,99773.75
2022-09-21T18:56:43.242Z,99776.09
2022-09-21T18:59:12.428Z,99777.84
2022-09-21T19:01:42.166Z,99775.09
2022-09-21T19:04:10.269Z,99768.22
2022-09-21T19:06:45.519Z,99769.94
2022-09-21T19:09:18.753Z,99772.50
2022-09-21T19:11:57.489Z,99775.19
2022-09-21T19:14:43.563Z,99778.69
2022-09-21T19:17:21.599Z,99780.16
2022-09-21T19:19:54.998Z,99781.09
2022-09-21T19:22:53.217Z,99781.34
2022-09-21T19:25:25.601Z,99787.19
2022-09-21T19:27:59.632Z,99795.78
2022-09-21T19:30:27.563Z,99789.00
2022-09-21T19:33:01.304Z,99770.59
2022-09-21T19:35:33.549Z,99780.44
2022-09-21T19:38:02.664Z,99789.03
2022-09-21T19:40:37.320Z,99790.81
2022-09-21T19:43:16.729Z,99787.63
2022-09-21T19:45:50.525Z,99787.56
2022-09-21T19:48:20.397Z,99783.97
2022-09-21T19:50:58.969Z,99777.28
2022-09-21T19:53:45.212Z,99787.53
2022-09-21T19:56:34.006Z,99775.53
2022-09-21T19:59:20.874Z,99785.94
2022-09-21T20:01:57.859Z,99782.84
2022-09-21T20:04:34.790Z,99775.72
2022-09-21T20:07:19.197Z,99780.31
2022-09-21T20:10:04.335Z,99775.13
2022-09-21T20:12:42.340Z,99773.47
2022-09-21T20:15:19.283Z,99771.78
2022-09-21T20:17:54.681Z,99770.47
2022-09-21T20:20:25.575Z,99767.00
2022-09-21T20:22:54.263Z,99773.19
2022-09-21T20:25:35.005Z,99767.53
2022-09-21T20:28:04.019Z,99772.75
2022-09-21T20:30:34.740Z,99760.63
2022-09-21T20:33:07.890Z,99756.38
2022-09-21T20:35:35.359Z,99759.88
2022-09-21T20:38:03.533Z,99763.25
2022-09-21T20:40:32.436Z,99758.06
2022-09-21T20:43:01.345Z,99758.84
2022-09-21T20:45:29.948Z,99755.31
2022-09-21T20:48:13.245Z,99759.72
2022-09-21T20:50:46.379Z,99755.41
2022-09-21T20:53:14.170Z,99753.72
2022-09-21T20:55:42.159Z,99748.50
2022-09-21T20:58:13.287Z,99751.16
2022-09-21T21:00:40.708Z,99744.09
2022-09-21T21:03:08.158Z,99756.13
2022-09-21T21:05:35.661Z,99750.97
2022-09-21T21:08:04.720Z,99736.34
2022-09-21T21:10:32.497Z,99755.25
2022-09-21T21:13:01.617Z,99744.19
2022-09-21T21:15:29.418Z,99736.31
2022-09-21T21:17:56.839Z,99747.56
2022-09-21T21:20:24.297Z,99744.09
2022-09-21T21:22:53.844Z,99742.34
2022-09-21T21:25:21.328Z,99737.13
2022-09-21T21:27:48.747Z,99744.91
2022-09-21T21:30:16.144Z,99742.16
2022-09-21T21:32:43.666Z,99744.84
2022-09-21T21:35:11.102Z,99750.97
2022-09-21T21:37:40.449Z,99746.63
2022-09-21T21:40:09.152Z,99739.50
2022-09-21T21:42:37.738Z,99745.59
2022-09-21T21:45:06.214Z,99737.66
2022-09-21T21:47:40.831Z,99735.88
2022-09-21T21:50:10.745Z,99733.28
2022-09-21T21:52:38.298Z,99741.88
2022-09-21T21:55:06.776Z,99739.19
2022-09-21T21:57:34.938Z,99731.38
2022-09-21T22:00:03.348Z,99735.66
2022-09-21T22:02:32.493Z,99744.28
2022-09-21T22:05:00.040Z,99737.25
2022-09-21T22:07:27.433Z,99747.75
2022-09-21T22:09:55.669Z,99761.41
2022-09-21T22:12:23.164Z,99756.06
2022-09-21T22:14:50.519Z,99761.34
2022-09-21T22:17:18.003Z,99757.75
2022-09-21T22:19:45.651Z,99757.81
2022-09-21T22:22:13.044Z,99770.88
2022-09-21T22:24:40.528Z,99760.81
2022-09-21T22:27:07.982Z,99755.63
2022-09-21T22:29:35.909Z,99747.94
2022-09-21T22:32:03.527Z,99748.78
2022-09-21T22:34:30.959Z,99751.28
2022-09-21T22:36:59.065Z,99737.31
2022-09-21T22:39:26.782Z,99761.38
2022-09-21T22:41:54.191Z,99747.66
2022-09-21T22:44:21.663Z,99749.44
2022-09-21T22:46:49.091Z,99750.31
2022-09-21T22:49:16.467Z,99738.97
2022-09-21T22:51:43.970Z,99744.22
2022-09-21T22:54:11.403Z,99741.63
2022-09-21T22:56:38.979Z,99745.06
2022-09-21T22:59:06.930Z,99746.78
2022-09-21T23:01:39.705Z,99746.78
2022-09-21T23:04:12.428Z,99738.88
2022-09-21T23:06:42.421Z,99740.84
2022-09-21T23:09:14.868Z,99736.38
2022-09-21T23:11:47.232Z,99746.78
2022-09-21T23:14:16.731Z,99744.34
2022-09-21T23:16:44.736Z,99739.97
2022-09-21T23:19:15.860Z,99730.44
2022-09-21T23:21:52.877Z,99729.72
2022-09-21T23:24:20.757Z,99738.31
2022-09-21T23:26:51.244Z,99743.53
2022-09-21T23:29:18.829Z,99726.22
2022-09-21T23:31:46.587Z,99729.63
2022-09-21T23:34:15.056Z,99720.94
2022-09-21T23:36:43.545Z,99726.22
2022-09-21T23:39:13.129Z,99730.59
2022-09-21T23:41:41.297Z,99726.03
2022-09-21T23:44:09.136Z,99717.44
2022-09-21T23:46:38.783Z,99720.84
2022-09-21T23:49:06.558Z,99724.25
2022-09-21T23:51:34.494Z,99719.94
2022-09-21T23:54:02.042Z,99723.28
2022-09-21T23:56:30.130Z,99719.06
2022-09-21T23:58:58.170Z,99717.09
